Time;durP1;ratioP1;P1;durP2;ratioP2;P2;SDS_P1;SDS_P2;PMS_P1;PMS_P2;Temp;Humidity;BMP_temperature;BMP_pressure;BME280_temperature;BME280_humidity;BME280_pressure;Samples;Min_cycle;Max_cycle;Signal;HPM_P1;HPM_P2
2023/07/01 00:00:48;;;;;;;11.30;10.80;;;;;;;;;;5042291;28;20060;-65
2023/07/01 00:03:13;;;;;;;12.52;11.93;;;;;;;;;;5041366;28;20040;-64
2023/07/01 00:05:39;;;;;;;11.95;11.35;;;;;;;;;;5043331;28;20060;-64
2023/07/01 00:08:04;;;;;;;12.43;11.82;;;;;;;;;;5047059;28;20017;-65
2023/07/01 00:10:29;;;;;;;11.47;10.97;;;;;;;;;;5040097;28;20032;-64
2023/07/01 00:12:55;;;;;;;11.55;11.02;;;;;;;;;;5045123;28;20301;-64
2023/07/01 00:15:20;;;;;;;12.10;11.50;;;;;;;;;;5047822;28;20029;-63
2023/07/01 00:17:45;;;;;;;12.30;11.70;;;;;;;;;;5052350;28;20482;-64
2023/07/01 00:20:11;;;;;;;11.77;11.23;;;;;;;;;;5054791;28;20033;-64
2023/07/01 00:22:36;;;;;;;11.98;11.40;;;;;;;;;;5050696;28;20064;-64
2023/07/01 00:25:01;;;;;;;12.07;11.48;;;;;;;;;;5053811;28;20103;-63
2023/07/01 00:27:27;;;;;;;11.48;10.98;;;;;;;;;;5053441;28;20013;-63
2023/07/01 00:29:52;;;;;;;12.20;11.60;;;;;;;;;;5051063;28;20047;-63
2023/07/01 00:32:17;;;;;;;13.10;12.40;;;;;;;;;;5051638;28;20475;-63
2023/07/01 00:34:43;;;;;;;12.48;11.88;;;;;;;;;;5052649;28;20025;-63
2023/07/01 00:37:09;;;;;;;11.23;10.73;;;;;;;;;;5049628;28;20032;-63
2023/07/01 00:39:34;;;;;;;12.23;11.63;;;;;;;;;;5034450;28;20461;-63
2023/07/01 00:41:59;;;;;;;11.40;10.90;;;;;;;;;;5050469;28;20266;-63
2023/07/01 00:44:24;;;;;;;12.50;11.90;;;;;;;;;;5044859;28;20465;-63
2023/07/01 00:46:50;;;;;;;12.02;11.43;;;;;;;;;;5031913;28;20099;-64
2023/07/01 00:49:15;;;;;;;12.00;11.40;;;;;;;;;;5048226;28;20021;-64
2023/07/01 00:51:41;;;;;;;11.85;11.30;;;;;;;;;;5049823;28;20383;-65
2023/07/01 00:54:06;;;;;;;11.50;11.00;;;;;;;;;;5051454;28;20032;-64
2023/07/01 00:56:31;;;;;;;11.60;11.10;;;;;;;;;;5052597;28;20488;-64
2023/07/01 00:58:57;;;;;;;11.60;11.10;;;;;;;;;;5042605;28;20068;-64
2023/07/01 01:01:29;;;;;;;12.10;11.50;;;;;;;;;;5046101;28;20037;-64
2023/07/01 01:04:00;;;;;;;12.57;11.98;;;;;;;;;;5053377;28;20032;-64
2023/07/01 01:06:33;;;;;;;11.80;11.27;;;;;;;;;;5042656;28;20028;-64
2023/07/01 01:09:03;;;;;;;11.50;11.00;;;;;;;;;;5050298;28;20025;-63
2023/07/01 01:11:31;;;;;;;11.57;11.07;;;;;;;;;;5050736;28;20032;-63
2023/07/01 01:13:58;;;;;;;11.18;10.68;;;;;;;;;;5043640;28;20029;-63
2023/07/01 01:16:24;;;;;;;12.20;11.60;;;;;;;;;;5048575;28;20036;-63
2023/07/01 01:18:50;;;;;;;11.43;10.93;;;;;;;;;;5052354;28;20539;-63
2023/07/01 01:21:16;;;;;;;12.40;11.80;;;;;;;;;;5049303;28;20079;-63
2023/07/01 01:23:54;;;;;;;11.98;11.38;;;;;;;;;;5042375;28;20053;-65
2023/07/01 01:26:20;;;;;;;12.45;11.85;;;;;;;;;;5051631;28;20029;-62
2023/07/01 01:28:46;;;;;;;12.07;11.48;;;;;;;;;;5050712;28;20028;-64
2023/07/01 01:31:11;;;;;;;12.13;11.52;;;;;;;;;;5046164;28;20490;-62
2023/07/01 01:33:37;;;;;;;13.25;12.55;;;;;;;;;;5045341;28;20104;-61
2023/07/01 01:36:14;;;;;;;11.70;11.20;;;;;;;;;;5050767;28;20388;-63
2023/07/01 01:38:41;;;;;;;12.50;11.90;;;;;;;;;;5048584;28;20025;-63
2023/07/01 01:41:17;;;;;;;11.82;11.27;;;;;;;;;;5055190;28;20451;-63
2023/07/01 01:43:46;;;;;;;12.02;11.43;;;;;;;;;;5050606;28;20480;-64
2023/07/01 01:46:12;;;;;;;11.65;11.13;;;;;;;;;;5046258;28;20496;-64
2023/07/01 01:48:37;;;;;;;11.95;11.35;;;;;;;;;;5051279;28;20033;-64
2023/07/01 01:51:03;;;;;;;11.68;11.18;;;;;;;;;;5049945;28;20026;-64
2023/07/01 01:53:29;;;;;;;11.57;11.07;;;;;;;;;;5051221;28;20027;-65
2023/07/01 01:55:56;;;;;;;11.60;11.10;;;;;;;;;;5050032;28;20118;-63
2023/07/01 01:58:21;;;;;;;12.00;11.40;;;;;;;;;;5052589;28;20036;-64
2023/07/01 02:00:47;;;;;;;12.60;12.00;;;;;;;;;;5051607;28;20137;-64
2023/07/01 02:03:12;;;;;;;12.10;11.50;;;;;;;;;;5047089;28;20108;-64
2023/07/01 02:05:37;;;;;;;12.02;11.43;;;;;;;;;;5048060;28;20017;-63
2023/07/01 02:08:04;;;;;;;11.52;11.02;;;;;;;;;;5046275;28;20021;-64
2023/07/01 02:10:29;;;;;;;11.13;10.63;;;;;;;;;;5049516;28;20032;-63
2023/07/01 02:12:55;;;;;;;12.32;11.73;;;;;;;;;;5034198;28;20029;-64
2023/07/01 02:15:20;;;;;;;12.05;11.45;;;;;;;;;;5051111;28;20113;-62
2023/07/01 02:17:45;;;;;;;12.10;11.50;;;;;;;;;;5052440;28;20079;-64
2023/07/01 02:20:11;;;;;;;12.25;11.65;;;;;;;;;;5052026;28;20116;-63
2023/07/01 02:22:37;;;;;;;12.55;11.95;;;;;;;;;;5044184;28;20021;-63
2023/07/01 02:25:02;;;;;;;11.85;11.25;;;;;;;;;;5046512;28;20027;-63
2023/07/01 02:27:30;;;;;;;11.52;11.02;;;;;;;;;;5046235;28;20025;-63
2023/07/01 02:29:56;;;;;;;11.70;11.20;;;;;;;;;;5050777;28;20029;-63
2023/07/01 02:32:21;;;;;;;12.57;11.98;;;;;;;;;;5051066;28;20059;-64
2023/07/01 02:34:47;;;;;;;11.90;11.30;;;;;;;;;;5043269;28;20035;-63
2023/07/01 02:37:12;;;;;;;12.02;11.43;;;;;;;;;;5051583;28;20028;-62
2023/07/01 02:39:38;;;;;;;11.90;11.30;;;;;;;;;;5045587;28;20029;-63
2023/07/01 02:42:04;;;;;;;11.55;11.05;;;;;;;;;;5048242;28;20379;-64
2023/07/01 02:44:29;;;;;;;11.32;10.82;;;;;;;;;;5044947;28;20100;-63
2023/07/01 02:46:54;;;;;;;12.65;12.05;;;;;;;;;;5050022;28;20116;-64
2023/07/01 02:49:20;;;;;;;11.93;11.32;;;;;;;;;;5043805;28;20025;-63
2023/07/01 02:51:45;;;;;;;12.30;11.70;;;;;;;;;;5050930;28;20027;-64
2023/07/01 02:54:11;;;;;;;11.85;11.30;;;;;;;;;;5046552;28;20033;-64
2023/07/01 02:56:36;;;;;;;11.93;11.32;;;;;;;;;;5042243;28;20025;-64
2023/07/01 02:59:03;;;;;;;11.70;11.20;;;;;;;;;;5049790;28;20035;-64
2023/07/01 03:01:29;;;;;;;11.57;11.07;;;;;;;;;;5043611;28;20123;-64
2023/07/01 03:03:54;;;;;;;12.23;11.63;;;;;;;;;;5048175;28;20166;-64
2023/07/01 03:06:19;;;;;;;12.00;11.40;;;;;;;;;;5027225;28;20036;-64
2023/07/01 03:08:45;;;;;;;12.27;11.68;;;;;;;;;;5047006;28;20028;-63
2023/07/01 03:11:10;;;;;;;12.15;11.55;;;;;;;;;;5046895;28;20452;-63
2023/07/01 03:13:38;;;;;;;12.45;11.85;;;;;;;;;;5047144;28;20013;-64
2023/07/01 03:16:06;;;;;;;11.65;11.15;;;;;;;;;;5034285;28;20395;-64
2023/07/01 03:18:31;;;;;;;11.60;11.10;;;;;;;;;;5047158;28;20025;-62
2023/07/01 03:20:57;;;;;;;12.38;11.77;;;;;;;;;;5049375;28;20033;-64
2023/07/01 03:23:23;;;;;;;11.95;11.40;;;;;;;;;;5046179;28;20511;-64
2023/07/01 03:25:48;;;;;;;12.38;11.77;;;;;;;;;;5050391;28;20021;-64
2023/07/01 03:28:13;;;;;;;11.67;11.17;;;;;;;;;;5050699;28;20017;-64
2023/07/01 03:30:38;;;;;;;11.57;11.07;;;;;;;;;;5049266;28;20357;-63
2023/07/01 03:33:06;;;;;;;12.00;11.40;;;;;;;;;;5043867;28;20382;-64
2023/07/01 03:35:31;;;;;;;11.82;11.32;;;;;;;;;;5046474;28;20033;-63
2023/07/01 03:37:56;;;;;;;12.30;11.70;;;;;;;;;;5050817;28;20037;-63
2023/07/01 03:40:22;;;;;;;12.43;11.82;;;;;;;;;;5046247;28;20044;-64
2023/07/01 03:42:47;;;;;;;12.07;11.57;;;;;;;;;;5046088;28;20679;-63
2023/07/01 03:45:12;;;;;;;12.20;11.60;;;;;;;;;;5049776;28;20488;-63
2023/07/01 03:47:39;;;;;;;11.57;11.07;;;;;;;;;;5047016;28;20396;-64
2023/07/01 03:50:07;;;;;;;11.60;11.10;;;;;;;;;;5044507;28;20066;-63
2023/07/01 03:52:33;;;;;;;11.77;11.27;;;;;;;;;;5046182;28;20503;-64
2023/07/01 03:54:58;;;;;;;11.68;11.18;;;;;;;;;;5046672;28;20044;-64
2023/07/01 03:57:24;;;;;;;11.80;11.30;;;;;;;;;;5049242;28;20051;-63
2023/07/01 03:59:49;;;;;;;11.73;11.23;;;;;;;;;;5048152;28;20266;-63
2023/07/01 04:02:15;;;;;;;11.77;11.27;;;;;;;;;;5038184;28;20046;-64
2023/07/01 04:04:42;;;;;;;11.85;11.35;;;;;;;;;;5044496;28;20131;-64
2023/07/01 04:07:07;;;;;;;11.63;11.13;;;;;;;;;;5046291;28;20025;-63
2023/07/01 04:09:32;;;;;;;11.80;11.30;;;;;;;;;;5042345;28;20052;-63
2023/07/01 04:11:58;;;;;;;11.20;10.70;;;;;;;;;;5049608;28;20404;-63
2023/07/01 04:14:24;;;;;;;11.68;11.18;;;;;;;;;;5048741;28;20088;-64
2023/07/01 04:16:50;;;;;;;11.40;10.90;;;;;;;;;;5045410;28;20475;-64
2023/07/01 04:19:15;;;;;;;11.65;11.15;;;;;;;;;;5038963;28;20049;-64
2023/07/01 04:21:40;;;;;;;11.50;11.00;;;;;;;;;;5048973;28;20040;-64
2023/07/01 04:24:07;;;;;;;11.40;10.90;;;;;;;;;;5046901;28;20095;-64
2023/07/01 04:26:33;;;;;;;11.45;10.95;;;;;;;;;;5045847;28;20482;-64
2023/07/01 04:28:58;;;;;;;11.43;10.93;;;;;;;;;;5049824;28;20149;-64
2023/07/01 04:31:24;;;;;;;11.60;11.10;;;;;;;;;;5046193;28;20026;-64
2023/07/01 04:33:49;;;;;;;11.60;11.10;;;;;;;;;;5035650;28;20262;-65
2023/07/01 04:36:14;;;;;;;11.73;11.23;;;;;;;;;;5045175;28;20649;-63
2023/07/01 04:38:40;;;;;;;11.60;11.10;;;;;;;;;;5047653;28;20020;-64
2023/07/01 04:41:05;;;;;;;11.70;11.20;;;;;;;;;;5044400;28;20032;-62
2023/07/01 04:43:31;;;;;;;11.45;10.95;;;;;;;;;;5043597;28;20049;-62
2023/07/01 04:45:56;;;;;;;11.85;11.35;;;;;;;;;;5046905;28;20036;-62
2023/07/01 04:48:21;;;;;;;12.02;11.52;;;;;;;;;;5044932;28;20013;-62
2023/07/01 04:50:46;;;;;;;11.30;10.80;;;;;;;;;;5045818;28;20090;-62
2023/07/01 04:53:12;;;;;;;11.80;11.30;;;;;;;;;;5047449;28;20266;-62
2023/07/01 04:55:38;;;;;;;11.57;11.07;;;;;;;;;;5043924;28;20049;-62
2023/07/01 04:58:03;;;;;;;11.60;11.10;;;;;;;;;;5048467;28;20029;-62
2023/07/01 05:00:29;;;;;;;11.57;11.07;;;;;;;;;;5046857;28;20551;-62
2023/07/01 05:02:54;;;;;;;11.40;10.90;;;;;;;;;;5051530;28;20048;-63
2023/07/01 05:05:19;;;;;;;11.48;10.98;;;;;;;;;;5039141;28;20048;-64
2023/07/01 05:07:45;;;;;;;11.30;10.80;;;;;;;;;;5049886;28;20491;-63
2023/07/01 05:10:10;;;;;;;11.10;10.60;;;;;;;;;;5041012;28;20288;-63
2023/07/01 05:12:35;;;;;;;11.40;10.90;;;;;;;;;;5043072;28;20063;-63
2023/07/01 05:15:01;;;;;;;11.07;10.57;;;;;;;;;;5044938;28;20273;-62
2023/07/01 05:17:26;;;;;;;11.55;11.05;;;;;;;;;;5039924;28;20021;-63
2023/07/01 05:19:51;;;;;;;11.07;10.57;;;;;;;;;;5045468;28;20094;-62
2023/07/01 05:22:17;;;;;;;11.90;11.40;;;;;;;;;;5041200;28;20305;-62
2023/07/01 05:24:42;;;;;;;11.52;11.02;;;;;;;;;;5040245;28;20017;-61
2023/07/01 05:27:07;;;;;;;11.60;11.10;;;;;;;;;;5040268;28;20028;-60
2023/07/01 05:29:32;;;;;;;11.37;10.87;;;;;;;;;;5040315;28;20266;-61
2023/07/01 05:31:58;;;;;;;11.43;10.93;;;;;;;;;;5041457;28;20035;-61
2023/07/01 05:34:24;;;;;;;11.90;11.40;;;;;;;;;;5043396;28;20251;-62
2023/07/01 05:36:50;;;;;;;11.48;10.98;;;;;;;;;;5045112;28;20261;-62
2023/07/01 05:39:16;;;;;;;11.45;10.95;;;;;;;;;;5050152;28;20132;-63
2023/07/01 05:41:41;;;;;;;11.20;10.70;;;;;;;;;;5047448;28;20044;-62
2023/07/01 05:44:07;;;;;;;11.13;10.63;;;;;;;;;;5052946;28;20429;-62
2023/07/01 05:46:32;;;;;;;11.80;11.30;;;;;;;;;;5045260;28;20021;-62
2023/07/01 05:48:58;;;;;;;11.57;11.07;;;;;;;;;;5048455;28;20021;-61
2023/07/01 05:51:23;;;;;;;11.52;11.02;;;;;;;;;;5046500;28;20131;-60
2023/07/01 05:53:48;;;;;;;11.33;10.83;;;;;;;;;;5046621;28;20029;-60
2023/07/01 05:56:15;;;;;;;11.65;11.15;;;;;;;;;;5044913;28;20100;-60
2023/07/01 05:58:40;;;;;;;11.43;10.93;;;;;;;;;;5041396;28;20484;-60
2023/07/01 06:01:05;;;;;;;11.27;10.77;;;;;;;;;;5048542;28;20049;-60
2023/07/01 06:03:30;;;;;;;11.63;11.13;;;;;;;;;;5042835;28;20120;-60
2023/07/01 06:05:56;;;;;;;11.90;11.40;;;;;;;;;;5044490;28;20029;-62
2023/07/01 06:08:21;;;;;;;11.90;11.40;;;;;;;;;;5044917;28;20108;-61
2023/07/01 06:10:46;;;;;;;11.80;11.30;;;;;;;;;;5046681;28;20108;-61
2023/07/01 06:13:12;;;;;;;11.77;11.27;;;;;;;;;;5050773;28;20025;-60
2023/07/01 06:15:37;;;;;;;11.40;10.90;;;;;;;;;;5051289;28;20300;-60
2023/07/01 06:18:02;;;;;;;11.80;11.30;;;;;;;;;;5051933;28;20049;-61
2023/07/01 06:20:27;;;;;;;11.85;11.35;;;;;;;;;;5042504;28;20025;-61
2023/07/01 06:22:53;;;;;;;11.80;11.30;;;;;;;;;;5050213;28;20021;-61
2023/07/01 06:25:19;;;;;;;11.80;11.30;;;;;;;;;;5042973;28;20259;-61
2023/07/01 06:27:44;;;;;;;11.70;11.20;;;;;;;;;;5041878;28;20383;-60
2023/07/01 06:30:09;;;;;;;11.20;10.70;;;;;;;;;;5041780;28;20029;-60
2023/07/01 06:32:35;;;;;;;11.30;10.80;;;;;;;;;;5052565;28;20028;-60
2023/07/01 06:35:00;;;;;;;11.40;10.90;;;;;;;;;;5045880;28;20021;-60
2023/07/01 06:37:25;;;;;;;11.65;11.15;;;;;;;;;;5036788;28;20053;-60
2023/07/01 06:39:52;;;;;;;11.60;11.10;;;;;;;;;;5039793;28;20079;-61
2023/07/01 06:42:18;;;;;;;11.50;11.00;;;;;;;;;;5041071;28;20531;-61
2023/07/01 06:44:43;;;;;;;11.88;11.38;;;;;;;;;;5046413;28;20108;-60
2023/07/01 06:47:08;;;;;;;11.70;11.20;;;;;;;;;;5045303;28;20096;-61
2023/07/01 06:49:34;;;;;;;11.43;10.93;;;;;;;;;;5050163;28;20033;-60
2023/07/01 06:51:59;;;;;;;11.57;11.07;;;;;;;;;;5040939;28;20461;-60
2023/07/01 06:54:24;;;;;;;11.63;11.13;;;;;;;;;;5043249;28;20270;-60
2023/07/01 06:56:50;;;;;;;11.53;11.03;;;;;;;;;;5046011;28;20263;-59
2023/07/01 06:59:15;;;;;;;11.35;10.85;;;;;;;;;;5037175;28;20449;-60
2023/07/01 07:01:40;;;;;;;11.63;11.13;;;;;;;;;;5026694;28;20057;-60
2023/07/01 07:04:06;;;;;;;11.23;10.73;;;;;;;;;;5022343;28;20358;-60
2023/07/01 07:06:32;;;;;;;11.25;10.75;;;;;;;;;;5029976;28;20063;-61
2023/07/01 07:08:57;;;;;;;11.35;10.85;;;;;;;;;;5025847;28;20026;-61
2023/07/01 07:11:22;;;;;;;11.70;11.20;;;;;;;;;;5027393;28;20396;-61
2023/07/01 07:13:48;;;;;;;11.50;11.00;;;;;;;;;;5029751;28;20029;-60
2023/07/01 07:16:13;;;;;;;11.55;11.05;;;;;;;;;;5026167;28;20092;-60
2023/07/01 07:18:38;;;;;;;11.50;11.00;;;;;;;;;;5023799;28;20100;-60
2023/07/01 07:21:04;;;;;;;11.50;11.00;;;;;;;;;;5030809;28;20022;-60
2023/07/01 07:23:29;;;;;;;12.20;11.70;;;;;;;;;;5029754;28;20380;-60
2023/07/01 07:25:54;;;;;;;11.70;11.20;;;;;;;;;;5021498;28;20041;-60
2023/07/01 07:28:19;;;;;;;11.40;10.90;;;;;;;;;;5024064;28;20263;-60
2023/07/01 07:30:45;;;;;;;11.80;11.30;;;;;;;;;;5024516;28;20051;-61
2023/07/01 07:33:10;;;;;;;11.53;11.03;;;;;;;;;;5024821;28;20688;-62
2023/07/01 07:35:35;;;;;;;11.40;10.90;;;;;;;;;;5028916;28;20080;-63
2023/07/01 07:38:01;;;;;;;11.30;10.80;;;;;;;;;;5019382;28;20271;-60
2023/07/01 07:40:26;;;;;;;11.57;11.07;;;;;;;;;;5020640;28;20286;-62
2023/07/01 07:42:54;;;;;;;11.80;11.30;;;;;;;;;;5017237;28;20437;-61
2023/07/01 07:45:20;;;;;;;12.00;11.50;;;;;;;;;;5017459;28;20307;-61
2023/07/01 07:47:46;;;;;;;11.60;11.10;;;;;;;;;;5023143;28;20045;-61
2023/07/01 07:50:11;;;;;;;11.80;11.30;;;;;;;;;;5028805;28;20535;-61
2023/07/01 07:52:36;;;;;;;11.93;11.43;;;;;;;;;;5023228;28;20504;-60
2023/07/01 07:55:03;;;;;;;11.60;11.10;;;;;;;;;;5017902;28;20026;-61
2023/07/01 07:57:28;;;;;;;12.00;11.50;;;;;;;;;;5025159;28;20664;-62
2023/07/01 07:59:53;;;;;;;11.73;11.23;;;;;;;;;;5027068;28;20052;-62
2023/07/01 08:02:19;;;;;;;11.30;10.80;;;;;;;;;;5044367;28;20502;-61
2023/07/01 08:04:44;;;;;;;12.10;11.60;;;;;;;;;;5048301;28;20025;-60
2023/07/01 08:07:10;;;;;;;12.38;11.77;;;;;;;;;;5050193;28;20778;-62
2023/07/01 08:09:35;;;;;;;12.18;11.68;;;;;;;;;;5048245;28;20029;-61
2023/07/01 08:12:01;;;;;;;12.48;11.88;;;;;;;;;;5042114;28;20029;-61
2023/07/01 08:14:26;;;;;;;11.77;11.27;;;;;;;;;;5041769;28;20033;-61
2023/07/01 08:16:54;;;;;;;11.75;11.25;;;;;;;;;;5044342;28;20017;-61
2023/07/01 08:19:20;;;;;;;12.40;11.80;;;;;;;;;;5038960;28;20025;-61
2023/07/01 08:21:45;;;;;;;11.80;11.30;;;;;;;;;;5040463;28;20030;-62
2023/07/01 08:24:10;;;;;;;11.88;11.38;;;;;;;;;;5044023;28;20087;-61
2023/07/01 08:26:36;;;;;;;12.00;11.50;;;;;;;;;;5047301;28;20440;-60
2023/07/01 08:29:01;;;;;;;12.35;11.75;;;;;;;;;;5048372;28;20032;-61
2023/07/01 08:31:27;;;;;;;11.40;10.90;;;;;;;;;;5048759;28;20031;-67
2023/07/01 08:33:52;;;;;;;11.93;11.43;;;;;;;;;;5047971;28;20415;-62
2023/07/01 08:36:18;;;;;;;11.93;11.43;;;;;;;;;;5042526;28;20021;-61
2023/07/01 08:38:43;;;;;;;11.55;11.05;;;;;;;;;;5047470;28;20027;-59
2023/07/01 08:41:12;;;;;;;11.80;11.30;;;;;;;;;;5045183;28;20020;-61
2023/07/01 08:43:38;;;;;;;11.98;11.48;;;;;;;;;;5043829;28;20051;-62
2023/07/01 08:46:04;;;;;;;12.52;11.93;;;;;;;;;;5048619;28;20035;-62
2023/07/01 08:48:31;;;;;;;12.85;12.25;;;;;;;;;;5050060;28;20018;-62
2023/07/01 08:51:02;;;;;;;11.93;11.43;;;;;;;;;;5045481;28;20032;-61
2023/07/01 08:53:28;;;;;;;11.75;11.25;;;;;;;;;;5048134;28;20037;-62
2023/07/01 08:55:54;;;;;;;12.00;11.50;;;;;;;;;;5051467;28;20029;-61
2023/07/01 08:58:19;;;;;;;12.02;11.52;;;;;;;;;;5048323;28;20549;-61
2023/07/01 09:00:45;;;;;;;11.85;11.35;;;;;;;;;;5050249;28;20057;-61
2023/07/01 09:03:12;;;;;;;11.60;11.10;;;;;;;;;;5052779;28;20077;-61
2023/07/01 09:05:37;;;;;;;11.80;11.30;;;;;;;;;;5047848;28;20033;-61
2023/07/01 09:08:02;;;;;;;11.73;11.23;;;;;;;;;;5032652;28;20507;-62
2023/07/01 09:10:27;;;;;;;11.75;11.25;;;;;;;;;;5030976;28;20266;-62
2023/07/01 09:12:53;;;;;;;12.10;11.60;;;;;;;;;;5049166;28;20024;-61
2023/07/01 09:15:18;;;;;;;11.90;11.40;;;;;;;;;;5052782;28;20270;-62
2023/07/01 09:17:44;;;;;;;12.50;11.90;;;;;;;;;;5047901;28;20304;-61
2023/07/01 09:20:10;;;;;;;11.48;10.98;;;;;;;;;;5050070;28;20472;-62
2023/07/01 09:22:36;;;;;;;11.90;11.40;;;;;;;;;;5051018;28;20045;-62
2023/07/01 09:25:02;;;;;;;11.70;11.20;;;;;;;;;;5048144;28;20031;-61
2023/07/01 09:27:40;;;;;;;11.32;10.82;;;;;;;;;;5050116;28;20103;-61
2023/07/01 09:30:26;;;;;;;11.93;11.43;;;;;;;;;;5050435;28;20025;-61
2023/07/01 09:32:51;;;;;;;11.43;10.93;;;;;;;;;;5047447;28;20071;-62
2023/07/01 09:35:17;;;;;;;11.90;11.40;;;;;;;;;;5048829;28;20060;-62
2023/07/01 09:37:42;;;;;;;11.75;11.25;;;;;;;;;;5042020;28;20032;-61
2023/07/01 09:40:17;;;;;;;12.70;12.10;;;;;;;;;;5046184;28;20391;-63
2023/07/01 09:42:50;;;;;;;11.50;11.00;;;;;;;;;;5046568;28;20020;-61
2023/07/01 09:45:15;;;;;;;12.50;11.90;;;;;;;;;;5041949;28;20055;-61
2023/07/01 09:47:40;;;;;;;11.80;11.30;;;;;;;;;;5050840;28;20025;-61
2023/07/01 09:50:06;;;;;;;11.80;11.30;;;;;;;;;;5050375;28;20069;-61
2023/07/01 09:52:35;;;;;;;12.80;12.20;;;;;;;;;;5049766;28;20108;-60
2023/07/01 09:55:02;;;;;;;11.93;11.43;;;;;;;;;;5048421;28;20036;-62
2023/07/01 09:57:27;;;;;;;12.20;11.63;;;;;;;;;;5045735;28;20029;-62
2023/07/01 09:59:52;;;;;;;12.00;11.48;;;;;;;;;;5044982;28;20036;-62
2023/07/01 10:02:18;;;;;;;11.82;11.32;;;;;;;;;;5046176;28;20068;-61
2023/07/01 10:04:44;;;;;;;12.37;11.77;;;;;;;;;;5049773;28;20075;-62
2023/07/01 10:07:09;;;;;;;11.45;10.95;;;;;;;;;;5042627;28;20282;-62
2023/07/01 10:09:34;;;;;;;12.35;11.75;;;;;;;;;;5035516;28;20086;-62
2023/07/01 10:11:59;;;;;;;11.70;11.20;;;;;;;;;;5043785;28;20032;-62
2023/07/01 10:14:26;;;;;;;12.02;11.50;;;;;;;;;;5046520;28;20270;-62
2023/07/01 10:16:51;;;;;;;11.50;11.00;;;;;;;;;;5047417;28;20111;-62
2023/07/01 10:19:27;;;;;;;12.30;11.70;;;;;;;;;;5048843;28;20757;-62
2023/07/01 10:21:53;;;;;;;11.77;11.27;;;;;;;;;;5044923;28;20027;-61
2023/07/01 10:24:38;;;;;;;11.65;11.15;;;;;;;;;;5050065;28;20017;-62
2023/07/01 10:27:04;;;;;;;11.75;11.25;;;;;;;;;;5043274;28;20029;-60
2023/07/01 10:29:29;;;;;;;12.38;11.77;;;;;;;;;;5050390;28;20357;-62
2023/07/01 10:32:10;;;;;;;11.80;11.30;;;;;;;;;;5052574;28;20116;-61
2023/07/01 10:34:54;;;;;;;11.85;11.35;;;;;;;;;;5049849;28;20044;-63
2023/07/01 10:37:22;;;;;;;12.32;11.73;;;;;;;;;;5047010;28;20478;-61
2023/07/01 10:39:47;;;;;;;11.75;11.25;;;;;;;;;;5047552;28;20450;-62
2023/07/01 10:42:36;;;;;;;11.27;10.77;;;;;;;;;;5045427;28;20056;-62
2023/07/01 10:45:11;;;;;;;11.10;10.60;;;;;;;;;;5047661;28;20032;-62
2023/07/01 10:47:36;;;;;;;11.80;11.30;;;;;;;;;;5041128;28;20021;-62
2023/07/01 10:50:03;;;;;;;11.18;10.68;;;;;;;;;;5044540;28;20044;-62
2023/07/01 10:52:29;;;;;;;11.00;10.50;;;;;;;;;;5042639;28;20116;-62
2023/07/01 10:54:54;;;;;;;11.43;10.93;;;;;;;;;;5044461;28;20108;-62
2023/07/01 10:57:20;;;;;;;11.20;10.70;;;;;;;;;;5052351;28;20475;-62
2023/07/01 10:59:45;;;;;;;11.70;11.20;;;;;;;;;;5044012;28;20277;-63
2023/07/01 11:02:10;;;;;;;11.40;10.90;;;;;;;;;;5049977;28;20520;-61
2023/07/01 11:04:51;;;;;;;12.48;11.88;;;;;;;;;;5047888;28;20025;-60
2023/07/01 11:07:24;;;;;;;11.57;11.07;;;;;;;;;;5048375;28;20025;-62
2023/07/01 11:09:49;;;;;;;11.43;10.93;;;;;;;;;;5046904;28;20033;-61
2023/07/01 11:12:15;;;;;;;11.52;11.02;;;;;;;;;;5047837;28;20063;-61
2023/07/01 11:14:40;;;;;;;12.45;11.85;;;;;;;;;;5036320;28;20037;-62
2023/07/01 11:17:14;;;;;;;11.70;11.20;;;;;;;;;;5041892;28;20029;-62
2023/07/01 11:19:39;;;;;;;11.55;11.05;;;;;;;;;;5043363;28;20028;-61
2023/07/01 11:22:05;;;;;;;11.43;10.93;;;;;;;;;;5044771;28;20021;-61
2023/07/01 11:24:30;;;;;;;11.13;10.63;;;;;;;;;;5045421;28;20082;-61
2023/07/01 11:27:00;;;;;;;11.50;11.00;;;;;;;;;;5048565;28;20032;-61
2023/07/01 11:29:25;;;;;;;12.23;11.68;;;;;;;;;;5046406;28;20029;-62
2023/07/01 11:31:58;;;;;;;11.77;11.27;;;;;;;;;;5045841;28;20048;-63
2023/07/01 11:34:23;;;;;;;12.90;12.30;;;;;;;;;;5046559;28;20111;-63
2023/07/01 11:36:49;;;;;;;11.77;11.27;;;;;;;;;;5045354;28;20120;-63
2023/07/01 11:39:15;;;;;;;11.73;11.23;;;;;;;;;;5045115;28;20274;-62
2023/07/01 11:41:42;;;;;;;11.93;11.43;;;;;;;;;;5040475;28;20043;-62
2023/07/01 11:44:08;;;;;;;11.75;11.25;;;;;;;;;;5048921;28;20029;-62
2023/07/01 11:46:37;;;;;;;11.82;11.32;;;;;;;;;;5047703;28;20379;-63
2023/07/01 11:49:13;;;;;;;12.05;11.52;;;;;;;;;;5039304;28;20056;-62
2023/07/01 11:51:39;;;;;;;11.60;11.10;;;;;;;;;;5037881;28;20046;-63
2023/07/01 11:54:04;;;;;;;11.57;11.07;;;;;;;;;;5044351;28;20033;-63
2023/07/01 11:56:29;;;;;;;11.40;10.90;;;;;;;;;;5041181;28;20507;-63
2023/07/01 11:58:55;;;;;;;12.40;11.80;;;;;;;;;;5044759;28;20268;-63
2023/07/01 12:01:23;;;;;;;12.00;11.50;;;;;;;;;;5042248;28;20450;-64
2023/07/01 12:03:49;;;;;;;12.68;12.07;;;;;;;;;;5041114;28;20029;-62
2023/07/01 12:06:17;;;;;;;11.57;11.07;;;;;;;;;;5033325;28;20023;-62
2023/07/01 12:08:50;;;;;;;12.43;11.82;;;;;;;;;;5035692;28;20078;-61
2023/07/01 12:11:15;;;;;;;12.77;12.18;;;;;;;;;;5038353;28;20531;-61
2023/07/01 12:13:41;;;;;;;12.10;11.57;;;;;;;;;;5033625;28;20164;-62
2023/07/01 12:16:06;;;;;;;11.70;11.20;;;;;;;;;;5041349;28;20041;-61
2023/07/01 12:18:32;;;;;;;12.20;11.60;;;;;;;;;;5036422;28;20251;-61
2023/07/01 12:20:57;;;;;;;11.43;10.93;;;;;;;;;;5036337;28;20308;-62
2023/07/01 12:23:24;;;;;;;11.82;11.32;;;;;;;;;;5040070;28;20040;-62
2023/07/01 12:25:50;;;;;;;11.55;11.05;;;;;;;;;;5042449;28;20029;-63
2023/07/01 12:28:15;;;;;;;11.75;11.25;;;;;;;;;;5036988;28;20018;-62
2023/07/01 12:30:41;;;;;;;11.50;11.00;;;;;;;;;;5016947;28;20017;-62
2023/07/01 12:33:06;;;;;;;12.50;11.90;;;;;;;;;;5031553;28;20545;-63
2023/07/01 12:35:31;;;;;;;12.93;12.32;;;;;;;;;;5041851;28;20099;-61
2023/07/01 12:37:58;;;;;;;11.80;11.30;;;;;;;;;;5042106;28;20082;-65
2023/07/01 12:40:30;;;;;;;12.25;11.65;;;;;;;;;;5037699;28;20052;-63
2023/07/01 12:42:55;;;;;;;11.77;11.27;;;;;;;;;;5020718;28;20040;-63
2023/07/01 12:45:21;;;;;;;12.43;11.82;;;;;;;;;;5039612;28;20033;-63
2023/07/01 12:47:46;;;;;;;11.77;11.27;;;;;;;;;;5042309;28;20032;-62
2023/07/01 12:50:12;;;;;;;12.50;11.90;;;;;;;;;;5042047;28;20064;-63
2023/07/01 12:52:37;;;;;;;12.48;11.88;;;;;;;;;;5040211;28;20055;-62
2023/07/01 12:55:07;;;;;;;11.90;11.40;;;;;;;;;;5046037;28;20025;-63
2023/07/01 12:57:32;;;;;;;11.60;11.10;;;;;;;;;;5042004;28;20074;-61
2023/07/01 12:59:58;;;;;;;11.55;11.05;;;;;;;;;;5041721;28;20028;-64
2023/07/01 13:02:23;;;;;;;12.55;11.95;;;;;;;;;;5040830;28;20527;-62
2023/07/01 13:05:07;;;;;;;12.35;11.75;;;;;;;;;;5041310;28;20032;-64
2023/07/01 13:07:33;;;;;;;11.70;11.20;;;;;;;;;;5042951;28;20021;-64
2023/07/01 13:09:58;;;;;;;11.57;11.07;;;;;;;;;;5045171;28;20029;-65
2023/07/01 13:12:27;;;;;;;12.27;11.68;;;;;;;;;;5035604;28;20376;-65
2023/07/01 13:14:53;;;;;;;11.70;11.20;;;;;;;;;;5040198;28;20875;-62
2023/07/01 13:17:29;;;;;;;11.85;11.35;;;;;;;;;;5044098;28;20041;-62
2023/07/01 13:19:55;;;;;;;11.68;11.18;;;;;;;;;;5043824;28;20504;-63
2023/07/01 13:22:20;;;;;;;12.80;12.20;;;;;;;;;;5032474;28;20024;-63
2023/07/01 13:24:45;;;;;;;12.30;11.70;;;;;;;;;;5044314;28;20293;-61
2023/07/01 13:27:14;;;;;;;12.23;11.63;;;;;;;;;;5046646;28;20787;-63
2023/07/01 13:29:39;;;;;;;11.27;10.77;;;;;;;;;;5046954;28;20334;-63
2023/07/01 13:32:04;;;;;;;11.60;11.10;;;;;;;;;;5051571;28;20028;-62
2023/07/01 13:34:31;;;;;;;11.00;10.50;;;;;;;;;;5051211;28;20060;-63
2023/07/01 13:36:57;;;;;;;11.10;10.60;;;;;;;;;;5050427;28;20032;-62
2023/07/01 13:39:36;;;;;;;11.90;11.40;;;;;;;;;;5045531;28;20013;-63
2023/07/01 13:42:03;;;;;;;11.73;11.23;;;;;;;;;;5044263;28;20028;-63
2023/07/01 13:44:29;;;;;;;11.05;10.55;;;;;;;;;;5043427;28;20040;-63
2023/07/01 13:46:55;;;;;;;11.68;11.18;;;;;;;;;;5047936;28;20021;-62
2023/07/01 13:49:25;;;;;;;11.50;11.00;;;;;;;;;;5051004;28;20120;-64
2023/07/01 13:51:51;;;;;;;10.98;10.48;;;;;;;;;;5047826;28;20567;-62
2023/07/01 13:54:18;;;;;;;11.77;11.27;;;;;;;;;;5051423;28;20017;-62
2023/07/01 13:56:44;;;;;;;11.50;11.00;;;;;;;;;;5030605;28;20400;-63
2023/07/01 13:59:12;;;;;;;11.17;10.67;;;;;;;;;;5046228;28;20021;-63
2023/07/01 14:01:39;;;;;;;11.10;10.60;;;;;;;;;;5048507;28;20282;-62
2023/07/01 14:04:04;;;;;;;11.30;10.80;;;;;;;;;;5043525;28;20451;-62
2023/07/01 14:06:30;;;;;;;11.95;11.43;;;;;;;;;;5049125;28;20056;-62
2023/07/01 14:08:56;;;;;;;12.55;11.95;;;;;;;;;;5040641;28;20041;-63
2023/07/01 14:11:26;;;;;;;11.60;11.10;;;;;;;;;;5047910;28;20025;-64